createdAt,value
2023-04-17T00:02:00.562Z,8.36
2023-04-17T00:04:27.520Z,8.25
2023-04-17T00:06:54.472Z,8.20
2023-04-17T00:09:21.905Z,8.20
2023-04-17T00:11:49.077Z,8.09
2023-04-17T00:14:16.235Z,8.05
2023-04-17T00:16:43.452Z,8.07
2023-04-17T00:19:11.179Z,8.00
2023-04-17T00:21:38.363Z,8.07
2023-04-17T00:24:05.456Z,7.99
2023-04-17T00:26:34.660Z,7.90
2023-04-17T00:29:02.049Z,7.87
2023-04-17T00:31:31.610Z,7.85
2023-04-17T00:33:59.042Z,7.85
2023-04-17T00:36:27.363Z,7.92
2023-04-17T00:38:54.744Z,7.92
2023-04-17T00:41:22.362Z,7.96
2023-04-17T00:43:49.187Z,7.97
2023-04-17T00:46:16.649Z,7.89
2023-04-17T00:48:44.609Z,7.94
2023-04-17T00:51:12.127Z,7.92
2023-04-17T00:53:39.671Z,7.91
2023-04-17T00:56:07.437Z,7.84
2023-04-17T00:58:37.569Z,7.96
2023-04-17T01:01:06.464Z,7.91
2023-04-17T01:03:34.521Z,7.98
2023-04-17T01:06:02.306Z,8.01
2023-04-17T01:08:38.498Z,8.11
2023-04-17T01:11:05.966Z,8.18
2023-04-17T01:13:33.024Z,8.15
2023-04-17T01:16:00.175Z,8.12
2023-04-17T01:18:27.661Z,8.18
2023-04-17T01:20:54.622Z,8.12
2023-04-17T01:23:21.928Z,8.14
2023-04-17T01:25:51.253Z,8.19
2023-04-17T01:28:18.689Z,8.27
2023-04-17T01:30:46.735Z,8.22
2023-04-17T01:33:14.325Z,8.30
2023-04-17T01:35:41.627Z,8.38
2023-04-17T01:38:08.961Z,8.36
2023-04-17T01:40:39.045Z,8.32
2023-04-17T01:43:06.962Z,8.32
2023-04-17T01:45:34.182Z,8.34
2023-04-17T01:48:01.672Z,8.39
2023-04-17T01:50:28.780Z,8.41
2023-04-17T01:52:56.204Z,8.41
2023-04-17T01:55:23.602Z,8.50
2023-04-17T01:57:51.952Z,8.50
2023-04-17T02:00:19.747Z,8.46
2023-04-17T02:02:47.069Z,8.50
2023-04-17T02:05:14.096Z,8.52
2023-04-17T02:07:40.874Z,8.57
2023-04-17T02:10:08.453Z,8.65
2023-04-17T02:12:36.831Z,8.65
2023-04-17T02:15:04.263Z,8.63
2023-04-17T02:17:31.575Z,8.65
2023-04-17T02:19:58.450Z,8.68
2023-04-17T02:22:25.803Z,8.70
2023-04-17T02:24:53.023Z,8.73
2023-04-17T02:27:20.656Z,8.69
2023-04-17T02:29:47.934Z,8.68
2023-04-17T02:32:17.423Z,8.69
2023-04-17T02:34:45.688Z,8.73
2023-04-17T02:37:15.545Z,8.72
2023-04-17T02:39:42.736Z,8.70
2023-04-17T02:42:13.096Z,8.71
2023-04-17T02:44:42.172Z,8.74
2023-04-17T02:47:09.602Z,8.70
2023-04-17T02:49:36.969Z,8.72
2023-04-17T02:52:04.653Z,8.69
2023-04-17T02:54:32.379Z,8.71
2023-04-17T02:57:02.091Z,8.76
2023-04-17T02:59:29.957Z,8.83
2023-04-17T03:02:01.073Z,8.81
2023-04-17T03:04:30.581Z,8.80
2023-04-17T03:06:59.633Z,8.79
2023-04-17T03:09:27.814Z,8.69
2023-04-17T03:11:54.919Z,8.78
2023-04-17T03:14:22.335Z,8.74
2023-04-17T03:16:50.241Z,8.78
2023-04-17T03:19:17.750Z,8.71
2023-04-17T03:21:44.675Z,8.74
2023-04-17T03:24:13.399Z,8.73
2023-04-17T03:26:41.656Z,8.71
2023-04-17T03:29:16.287Z,8.72
2023-04-17T03:31:46.575Z,8.73
2023-04-17T03:34:14.436Z,8.72
2023-04-17T03:36:42.580Z,8.71
2023-04-17T03:39:11.510Z,8.62
2023-04-17T03:41:39.146Z,8.65
2023-04-17T03:44:06.978Z,8.71
2023-04-17T03:46:37.854Z,8.72
2023-04-17T03:49:07.164Z,8.73
2023-04-17T03:51:34.437Z,8.74
2023-04-17T03:54:10.993Z,8.76
2023-04-17T03:56:39.952Z,8.76
2023-04-17T03:59:08.281Z,8.86
2023-04-17T04:01:44.717Z,8.89
2023-04-17T04:04:18.805Z,8.93
2023-04-17T04:06:50.321Z,8.97
2023-04-17T04:09:20.823Z,9.05
2023-04-17T04:11:48.538Z,9.09
2023-04-17T04:14:16.079Z,9.21
2023-04-17T04:16:46.650Z,9.33
2023-04-17T04:19:16.071Z,9.38
2023-04-17T04:21:45.634Z,9.38
2023-04-17T04:24:14.846Z,9.40
2023-04-17T04:26:43.552Z,9.49
2023-04-17T04:29:14.364Z,9.45
2023-04-17T04:32:04.773Z,9.41
2023-04-17T04:34:38.361Z,9.23
2023-04-17T04:37:05.566Z,9.20
2023-04-17T04:39:38.448Z,9.29
2023-04-17T04:42:10.500Z,9.26
2023-04-17T04:44:54.920Z,9.30
2023-04-17T04:47:25.791Z,9.33
2023-04-17T04:49:55.021Z,9.50
2023-04-17T04:52:23.348Z,9.69
2023-04-17T04:54:54.610Z,9.87
2023-04-17T04:57:22.665Z,10.02
2023-04-17T04:59:54.280Z,10.23
2023-04-17T05:02:37.347Z,10.41
2023-04-17T05:05:09.990Z,10.49
2023-04-17T05:07:43.902Z,10.61
2023-04-17T05:10:14.611Z,10.74
2023-04-17T05:12:47.976Z,10.78
2023-04-17T05:15:16.802Z,10.83
2023-04-17T05:17:45.128Z,10.86
2023-04-17T05:20:15.297Z,10.87
2023-04-17T05:22:53.316Z,10.73
2023-04-17T05:25:22.811Z,10.69
2023-04-17T05:27:51.040Z,10.64
2023-04-17T05:30:19.208Z,10.56
2023-04-17T05:32:52.054Z,10.47
2023-04-17T05:35:54.093Z,10.28
2023-04-17T05:38:24.874Z,10.18
2023-04-17T05:40:54.171Z,10.21
2023-04-17T05:43:21.780Z,10.14
2023-04-17T05:45:49.461Z,10.14
2023-04-17T05:48:17.077Z,10.15
2023-04-17T05:50:45.780Z,10.11
2023-04-17T05:53:12.796Z,10.12
2023-04-17T05:55:48.324Z,10.12
2023-04-17T06:00:48.332Z,10.12
2023-04-17T06:03:19.521Z,10.09
2023-04-17T06:05:53.808Z,10.16
2023-04-17T06:08:21.915Z,10.15
2023-04-17T06:10:50.546Z,10.13
2023-04-17T06:13:19.024Z,10.15
2023-04-17T06:15:50.907Z,10.14
2023-04-17T06:18:19.004Z,10.12
2023-04-17T06:20:46.964Z,10.09
2023-04-17T06:23:14.777Z,10.12
2023-04-17T06:25:43.062Z,10.14
2023-04-17T06:28:13.076Z,10.15
2023-04-17T06:30:41.018Z,10.21
2023-04-17T06:33:09.355Z,10.25
2023-04-17T06:35:38.017Z,10.30
2023-04-17T06:38:26.246Z,10.34
2023-04-17T06:40:53.649Z,10.38
2023-04-17T06:43:21.524Z,10.38
2023-04-17T06:45:49.667Z,10.45
2023-04-17T06:48:17.008Z,10.47
2023-04-17T06:50:44.129Z,10.54
2023-04-17T06:53:13.334Z,10.61
2023-04-17T06:55:40.797Z,10.65
2023-04-17T06:58:09.065Z,10.73
2023-04-17T07:00:36.911Z,10.81
2023-04-17T07:03:03.970Z,10.91
2023-04-17T07:05:31.791Z,11.03
2023-04-17T07:07:59.279Z,11.11
2023-04-17T07:10:29.045Z,11.26
2023-04-17T07:12:56.232Z,11.39
2023-04-17T07:15:24.345Z,11.53
2023-04-17T07:17:52.118Z,11.60
2023-04-17T07:20:21.755Z,11.70
2023-04-17T07:23:08.386Z,11.83
2023-04-17T07:25:36.442Z,11.99
2023-04-17T07:28:05.528Z,12.10
2023-04-17T07:30:33.980Z,12.20
2023-04-17T07:33:02.488Z,12.38
2023-04-17T07:35:30.024Z,12.61
2023-04-17T07:37:59.373Z,12.86
2023-04-17T07:40:27.585Z,13.23
2023-04-17T07:42:56.413Z,13.53
2023-04-17T07:45:23.933Z,14.08
2023-04-17T07:47:53.843Z,14.80
2023-04-17T07:50:24.282Z,15.60
2023-04-17T07:52:51.494Z,16.24
2023-04-17T07:55:18.579Z,17.01
2023-04-17T07:57:48.230Z,17.68
2023-04-17T08:00:17.126Z,18.40
2023-04-17T08:02:44.509Z,18.87
2023-04-17T08:05:12.350Z,19.15
2023-04-17T08:07:44.808Z,19.46
2023-04-17T08:10:12.505Z,19.61
2023-04-17T08:12:40.824Z,19.45
2023-04-17T08:15:08.968Z,19.67
2023-04-17T08:17:36.332Z,19.70
2023-04-17T08:20:11.063Z,19.91
2023-04-17T08:22:43.067Z,20.02
2023-04-17T08:25:11.410Z,19.97
2023-04-17T08:27:41.272Z,20.09
2023-04-17T08:30:13.318Z,20.19
2023-04-17T08:32:45.418Z,20.09
2023-04-17T08:35:15.285Z,19.99
2023-04-17T08:37:44.746Z,19.98
2023-04-17T08:40:14.007Z,20.02
2023-04-17T08:42:43.543Z,20.05
2023-04-17T08:45:13.841Z,20.24
2023-04-17T08:47:42.689Z,20.01
2023-04-17T08:50:17.905Z,19.85
2023-04-17T08:52:50.820Z,19.85
2023-04-17T08:55:24.322Z,19.66
2023-04-17T08:57:58.975Z,19.82
2023-04-17T09:00:34.542Z,20.04
2023-04-17T09:03:05.320Z,19.94
2023-04-17T09:05:37.305Z,20.31
2023-04-17T09:08:18.324Z,20.55
2023-04-17T09:10:50.446Z,20.52
2023-04-17T09:13:19.638Z,21.07
2023-04-17T09:16:03.381Z,21.68
2023-04-17T09:18:32.329Z,22.34
2023-04-17T09:21:01.465Z,22.95
2023-04-17T09:23:30.506Z,23.59
2023-04-17T09:26:10.653Z,23.75
2023-04-17T09:28:41.767Z,24.17
2023-04-17T09:31:18.030Z,24.61
2023-04-17T09:34:06.179Z,24.62
2023-04-17T09:36:38.648Z,24.53
2023-04-17T09:39:16.566Z,24.61
2023-04-17T09:41:44.235Z,24.51
2023-04-17T09:44:12.686Z,24.56
2023-04-17T09:46:46.037Z,24.34
2023-04-17T09:49:16.638Z,24.00
2023-04-17T09:51:45.880Z,24.07
2023-04-17T09:54:16.675Z,23.41
2023-04-17T09:56:44.966Z,23.37
2023-04-17T09:59:13.582Z,23.54
2023-04-17T10:01:42.774Z,23.52
2023-04-17T10:04:12.111Z,23.80
2023-04-17T10:06:40.228Z,23.88
2023-04-17T10:09:08.731Z,24.25
2023-04-17T10:11:41.941Z,24.48
2023-04-17T10:14:14.822Z,24.71
2023-04-17T10:16:48.012Z,24.86
2023-04-17T10:19:33.252Z,25.14
2023-04-17T10:22:16.348Z,25.43
2023-04-17T10:24:44.927Z,24.67
2023-04-17T10:27:31.247Z,25.19
2023-04-17T10:30:01.061Z,25.02
2023-04-17T10:32:38.168Z,24.24
2023-04-17T10:35:30.932Z,23.66
2023-04-17T10:38:07.067Z,23.66
2023-04-17T10:40:40.697Z,23.56
2023-04-17T10:43:11.854Z,24.08
2023-04-17T10:46:00.667Z,24.93
2023-04-17T10:48:50.081Z,26.15
2023-04-17T10:51:24.347Z,27.13
2023-04-17T10:53:58.823Z,27.67
2023-04-17T10:56:33.671Z,27.91
2023-04-17T10:59:06.456Z,27.00
2023-04-17T11:01:58.588Z,25.97
2023-04-17T11:04:29.439Z,26.39
2023-04-17T11:06:57.064Z,26.32
2023-04-17T11:09:30.000Z,26.36
2023-04-17T11:12:04.163Z,25.46
2023-04-17T11:14:31.690Z,26.03
2023-04-17T11:16:58.832Z,26.46
2023-04-17T11:19:26.684Z,26.24
2023-04-17T11:22:02.139Z,26.10
2023-04-17T11:24:31.128Z,25.86
2023-04-17T11:27:00.208Z,25.78
2023-04-17T11:29:28.320Z,26.01
2023-04-17T11:31:57.366Z,26.50
2023-04-17T11:34:27.594Z,27.21
2023-04-17T11:36:59.609Z,27.85
2023-04-17T11:39:32.514Z,28.44
2023-04-17T11:42:02.651Z,28.61
2023-04-17T11:44:30.267Z,28.74
2023-04-17T11:47:01.488Z,28.69
2023-04-17T11:49:32.969Z,28.65
2023-04-17T11:52:05.469Z,28.36
2023-04-17T11:54:39.906Z,27.89
2023-04-17T11:57:15.240Z,27.05
2023-04-17T11:59:43.105Z,26.53
2023-04-17T12:02:10.117Z,26.15
2023-04-17T12:04:40.038Z,25.47
2023-04-17T12:07:09.411Z,25.30
2023-04-17T12:09:37.323Z,25.06
2023-04-17T12:12:07.414Z,24.76
2023-04-17T12:14:34.977Z,24.69
2023-04-17T12:17:02.286Z,24.20
2023-04-17T12:19:32.273Z,23.64
2023-04-17T12:21:59.943Z,23.17
2023-04-17T12:24:28.564Z,22.87
2023-04-17T12:26:56.458Z,22.81
2023-04-17T12:29:36.224Z,22.66
2023-04-17T12:32:11.247Z,22.07
2023-04-17T12:34:38.592Z,22.20
2023-04-17T12:37:05.962Z,22.26
2023-04-17T12:39:33.389Z,22.26
2023-04-17T12:42:01.130Z,21.93
2023-04-17T12:44:28.619Z,21.89
2023-04-17T12:46:56.557Z,22.17
2023-04-17T12:49:24.125Z,21.02
2023-04-17T12:51:51.934Z,20.82
2023-04-17T12:54:19.603Z,19.93
2023-04-17T12:56:47.175Z,20.29
2023-04-17T12:59:14.389Z,20.00
2023-04-17T13:01:42.826Z,20.17
2023-04-17T13:04:10.010Z,20.14
2023-04-17T13:06:36.815Z,20.32
2023-04-17T13:09:05.160Z,20.22
2023-04-17T13:11:32.541Z,20.53
2023-04-17T13:13:59.825Z,20.59
2023-04-17T13:16:27.145Z,20.84
2023-04-17T13:18:54.656Z,20.73
2023-04-17T13:21:21.599Z,20.58
2023-04-17T13:23:48.923Z,20.46
2023-04-17T13:26:16.385Z,20.33
2023-04-17T13:28:43.480Z,20.35
2023-04-17T13:31:11.137Z,20.38
2023-04-17T13:33:40.558Z,20.31
2023-04-17T13:36:07.852Z,20.25
2023-04-17T13:38:35.007Z,20.19
2023-04-17T13:41:02.489Z,19.64
2023-04-17T13:43:29.618Z,19.86
2023-04-17T13:45:57.285Z,19.85
2023-04-17T13:48:24.440Z,19.73
2023-04-17T13:50:51.430Z,18.79
2023-04-17T13:53:20.068Z,19.03
2023-04-17T13:55:48.529Z,19.14
2023-04-17T13:58:16.120Z,19.20
2023-04-17T14:00:43.619Z,19.23
2023-04-17T14:03:11.247Z,19.35
2023-04-17T14:05:38.180Z,19.45
2023-04-17T14:08:05.834Z,19.45
2023-04-17T14:10:35.177Z,19.53
2023-04-17T14:13:02.754Z,19.54
2023-04-17T14:15:30.154Z,19.57
2023-04-17T14:17:57.874Z,19.69
2023-04-17T14:20:25.515Z,19.74
2023-04-17T14:22:56.144Z,19.72
2023-04-17T14:25:23.215Z,19.77
2023-04-17T14:27:52.199Z,19.82
2023-04-17T14:30:19.725Z,19.84
2023-04-17T14:32:47.424Z,19.72
2023-04-17T14:35:14.972Z,19.73
2023-04-17T14:37:42.576Z,19.56
2023-04-17T14:40:09.868Z,19.52
2023-04-17T14:42:47.374Z,19.34
2023-04-17T14:45:18.455Z,19.09
2023-04-17T14:47:45.905Z,18.92
2023-04-17T14:50:13.393Z,18.78
2023-04-17T14:52:40.595Z,18.52
2023-04-17T14:55:08.929Z,17.92
2023-04-17T14:57:36.836Z,17.17
2023-04-17T15:00:04.687Z,16.83
2023-04-17T15:02:39.032Z,16.73
2023-04-17T15:05:07.726Z,16.58
2023-04-17T15:07:35.121Z,16.52
2023-04-17T15:10:02.573Z,16.56
2023-04-17T15:12:29.614Z,16.35
2023-04-17T15:14:56.659Z,16.34
2023-04-17T15:17:23.993Z,16.18
2023-04-17T15:19:50.986Z,16.24
2023-04-17T15:22:18.331Z,16.08
2023-04-17T15:24:45.883Z,16.02
2023-04-17T15:27:12.710Z,15.85
2023-04-17T15:29:40.028Z,15.90
2023-04-17T15:32:07.173Z,15.82
2023-04-17T15:34:35.193Z,15.73
2023-04-17T15:37:02.085Z,15.57
2023-04-17T15:39:29.293Z,15.46
2023-04-17T15:41:57.676Z,15.41
2023-04-17T15:44:24.735Z,15.32
2023-04-17T15:46:52.585Z,15.19
2023-04-17T15:49:20.049Z,14.91
2023-04-17T15:51:47.458Z,14.86
2023-04-17T15:54:14.537Z,14.83
2023-04-17T15:56:41.821Z,14.72
2023-04-17T15:59:09.540Z,14.62
2023-04-17T16:01:36.615Z,14.52
2023-04-17T16:04:04.429Z,14.38
2023-04-17T16:06:31.504Z,14.30
2023-04-17T16:08:59.098Z,14.05
2023-04-17T16:11:28.263Z,13.96
2023-04-17T16:13:55.930Z,13.87
2023-04-17T16:16:23.429Z,13.72
2023-04-17T16:18:51.332Z,13.60
2023-04-17T16:21:21.137Z,13.57
2023-04-17T16:23:50.113Z,13.44
2023-04-17T16:26:17.321Z,13.38
2023-04-17T16:28:46.104Z,13.11
2023-04-17T16:31:16.928Z,13.10
2023-04-17T16:33:45.015Z,12.96
2023-04-17T16:36:12.157Z,12.86
2023-04-17T16:38:39.477Z,12.63
2023-04-17T16:41:07.027Z,12.54
2023-04-17T16:43:34.205Z,12.41
2023-04-17T16:46:11.017Z,12.32
2023-04-17T16:48:41.906Z,12.25
2023-04-17T16:51:09.475Z,12.09
2023-04-17T16:53:36.328Z,11.91
2023-04-17T16:56:06.803Z,11.87
2023-04-17T16:58:34.308Z,11.71
2023-04-17T17:01:01.799Z,11.53
2023-04-17T17:03:29.246Z,11.45
2023-04-17T17:05:57.847Z,11.32
2023-04-17T17:08:25.072Z,11.13
2023-04-17T17:10:52.075Z,11.04
2023-04-17T17:13:19.338Z,10.98
2023-04-17T17:15:46.654Z,10.90
2023-04-17T17:18:13.925Z,10.80
2023-04-17T17:20:41.445Z,10.60
2023-04-17T17:23:08.670Z,10.55
2023-04-17T17:25:36.142Z,10.46
2023-04-17T17:28:03.448Z,10.46
2023-04-17T17:30:30.289Z,10.40
2023-04-17T17:32:57.570Z,10.35
2023-04-17T17:35:25.018Z,10.22
2023-04-17T17:37:52.800Z,10.30
2023-04-17T17:40:19.625Z,10.18
2023-04-17T17:42:48.094Z,10.17
2023-04-17T17:45:15.355Z,10.10
2023-04-17T17:47:42.713Z,10.06
2023-04-17T17:50:10.250Z,10.06
2023-04-17T17:52:37.763Z,10.05
2023-04-17T17:55:05.556Z,10.00
2023-04-17T17:57:45.685Z,10.03
2023-04-17T18:00:17.003Z,10.07
2023-04-17T18:02:44.683Z,10.07
2023-04-17T18:05:12.074Z,10.01
2023-04-17T18:07:41.104Z,9.98
2023-04-17T18:10:08.649Z,9.90
2023-04-17T18:12:35.529Z,9.98
2023-04-17T18:15:02.799Z,9.89
2023-04-17T18:17:30.273Z,9.91
2023-04-17T18:19:57.561Z,9.94
2023-04-17T18:22:24.940Z,9.90
2023-04-17T18:24:56.378Z,9.85
2023-04-17T18:27:23.978Z,9.92
2023-04-17T18:29:51.496Z,9.92
2023-04-17T18:32:19.049Z,9.86
2023-04-17T18:34:49.323Z,9.93
2023-04-17T18:37:18.311Z,9.93
2023-04-17T18:39:45.661Z,9.98
2023-04-17T18:42:12.477Z,9.96
2023-04-17T18:44:40.091Z,9.93
2023-04-17T18:47:07.409Z,9.95
2023-04-17T18:49:34.932Z,9.90
2023-04-17T18:52:03.447Z,9.94
2023-04-17T18:54:30.706Z,9.95
2023-04-17T18:56:58.334Z,9.90
2023-04-17T18:59:28.073Z,9.99
2023-04-17T19:01:55.156Z,10.02
2023-04-17T19:04:22.407Z,9.99
2023-04-17T19:06:49.651Z,9.97
2023-04-17T19:09:16.587Z,9.92
2023-04-17T19:11:43.477Z,9.96
2023-04-17T19:14:10.705Z,10.07
2023-04-17T19:16:37.619Z,10.03
2023-04-17T19:19:05.865Z,10.02
2023-04-17T19:21:33.233Z,10.00
2023-04-17T19:24:00.773Z,10.06
2023-04-17T19:26:27.734Z,10.09
2023-04-17T19:28:55.210Z,10.15
2023-04-17T19:31:22.252Z,10.03
2023-04-17T19:33:48.984Z,9.92
2023-04-17T19:36:16.107Z,9.95
2023-04-17T19:38:44.061Z,9.97
2023-04-17T19:41:15.045Z,9.94
2023-04-17T19:43:42.840Z,9.96
2023-04-17T19:46:10.633Z,9.95
2023-04-17T19:48:38.279Z,9.81
2023-04-17T19:51:08.764Z,9.96
2023-04-17T19:53:37.870Z,9.90
2023-04-17T19:56:08.326Z,9.94
2023-04-17T19:58:37.124Z,9.79
2023-04-17T20:01:04.883Z,9.78
2023-04-17T20:03:33.181Z,9.78
2023-04-17T20:06:00.787Z,9.71
2023-04-17T20:08:27.920Z,9.62
2023-04-17T20:10:55.319Z,9.63
2023-04-17T20:13:23.013Z,9.50
2023-04-17T20:15:50.786Z,9.45
2023-04-17T20:18:18.488Z,9.49
2023-04-17T20:20:45.877Z,9.33
2023-04-17T20:23:12.764Z,9.27
2023-04-17T20:25:40.031Z,9.29
2023-04-17T20:28:07.515Z,9.20
2023-04-17T20:30:34.932Z,9.14
2023-04-17T20:33:02.905Z,9.14
2023-04-17T20:35:30.580Z,9.06
2023-04-17T20:37:57.943Z,8.97
2023-04-17T20:40:25.446Z,8.92
2023-04-17T20:42:53.279Z,8.92
2023-04-17T20:45:21.014Z,8.82
2023-04-17T20:50:18.355Z,8.84
2023-04-17T20:52:45.702Z,8.87
2023-04-17T20:55:13.194Z,8.79
2023-04-17T20:57:40.134Z,8.76
2023-04-17T21:00:08.371Z,8.77
2023-04-17T21:02:35.669Z,8.80
2023-04-17T21:05:02.952Z,8.75
2023-04-17T21:07:31.207Z,8.78
2023-04-17T21:09:58.389Z,8.73
2023-04-17T21:12:25.635Z,8.80
2023-04-17T21:14:52.838Z,8.72
2023-04-17T21:17:20.240Z,8.69
2023-04-17T21:19:47.656Z,8.73
2023-04-17T21:22:14.756Z,8.68
2023-04-17T21:24:42.470Z,8.64
2023-04-17T21:27:10.684Z,8.61
2023-04-17T21:29:37.783Z,8.67
2023-04-17T21:32:04.999Z,8.63
2023-04-17T21:34:34.117Z,8.52
2023-04-17T21:37:05.044Z,8.64
2023-04-17T21:39:33.269Z,8.64
2023-04-17T21:42:02.180Z,8.66
2023-04-17T21:44:29.083Z,8.66
2023-04-17T21:46:56.408Z,8.57
2023-04-17T21:49:23.882Z,8.55
2023-04-17T21:51:52.137Z,8.58
2023-04-17T21:54:19.274Z,8.62
2023-04-17T21:56:46.477Z,8.57
2023-04-17T21:59:13.308Z,8.56
2023-04-17T22:01:40.717Z,8.57
2023-04-17T22:04:07.909Z,8.52
2023-04-17T22:06:38.418Z,8.60
2023-04-17T22:09:05.939Z,8.58
2023-04-17T22:11:34.703Z,8.54
2023-04-17T22:14:02.045Z,8.65
2023-04-17T22:16:29.789Z,8.63
2023-04-17T22:18:57.107Z,8.72
2023-04-17T22:21:24.068Z,8.65
2023-04-17T22:23:50.906Z,8.74
2023-04-17T22:26:18.136Z,8.68
2023-04-17T22:28:45.279Z,8.61
2023-04-17T22:31:15.822Z,8.67
2023-04-17T22:33:43.364Z,8.57
2023-04-17T22:36:11.038Z,8.61
2023-04-17T22:38:37.974Z,8.64
2023-04-17T22:41:05.511Z,8.51
2023-04-17T22:43:32.866Z,8.55
2023-04-17T22:46:00.261Z,8.49
2023-04-17T22:48:28.462Z,8.48
2023-04-17T22:50:56.556Z,8.46
2023-04-17T22:53:24.013Z,8.52
2023-04-17T22:56:04.547Z,8.45
2023-04-17T22:58:33.835Z,8.47
2023-04-17T23:01:01.254Z,8.47
2023-04-17T23:03:28.830Z,8.37
2023-04-17T23:05:56.952Z,8.43
2023-04-17T23:08:24.246Z,8.34
2023-04-17T23:11:01.715Z,8.33
2023-04-17T23:13:30.947Z,8.29
2023-04-17T23:15:58.380Z,8.25
2023-04-17T23:18:25.667Z,8.21
2023-04-17T23:20:52.741Z,8.25
2023-04-17T23:23:21.062Z,8.16
2023-04-17T23:25:48.097Z,8.11
2023-04-17T23:28:15.357Z,8.03
2023-04-17T23:30:42.838Z,8.10
2023-04-17T23:33:10.422Z,8.05
2023-04-17T23:35:38.092Z,8.06
2023-04-17T23:38:05.596Z,7.99
2023-04-17T23:40:34.770Z,7.97
2023-04-17T23:43:01.587Z,8.02
2023-04-17T23:45:28.670Z,7.96
2023-04-17T23:47:55.801Z,7.93
2023-04-17T23:50:23.038Z,7.98
2023-04-17T23:52:50.571Z,8.02
2023-04-17T23:55:18.069Z,7.98
2023-04-17T23:57:45.651Z,7.92
